Time;durP1;ratioP1;P1;durP2;ratioP2;P2;SDS_P1;SDS_P2;PMS_P1;PMS_P2;Temp;Humidity;BMP_temperature;BMP_pressure;BME280_temperature;BME280_humidity;BME280_pressure;Samples;Min_cycle;Max_cycle;Signal;HPM_P1;HPM_P2
2023/07/13 00:00:47;;;;;;;2.73;1.10;;;21.90;99.90;;;;;;4119325;28;20222;-75
2023/07/13 00:02:48;;;;;;;3.33;1.00;;;21.90;99.90;;;;;;4118502;28;20215;-75
2023/07/13 00:04:50;;;;;;;2.20;1.10;;;21.80;99.90;;;;;;4120579;28;20245;-74
2023/07/13 00:06:53;;;;;;;2.70;1.00;;;21.80;99.90;;;;;;4120890;28;20257;-74
2023/07/13 00:08:54;;;;;;;2.43;1.10;;;21.70;99.90;;;;;;4125416;28;20299;-75
2023/07/13 00:10:56;;;;;;;1.87;1.20;;;21.70;99.90;;;;;;4119284;28;20240;-75
2023/07/13 00:12:59;;;;;;;3.30;1.30;;;21.70;99.90;;;;;;4118024;28;20216;-74
2023/07/13 00:15:03;;;;;;;1.50;1.10;;;21.70;99.90;;;;;;4118689;28;20303;-74
2023/07/13 00:17:05;;;;;;;1.87;1.10;;;21.80;99.90;;;;;;4117031;28;20238;-75
2023/07/13 00:19:07;;;;;;;1.43;1.00;;;21.70;99.90;;;;;;4123931;28;20288;-75
2023/07/13 00:21:09;;;;;;;1.97;1.23;;;21.70;99.90;;;;;;4118699;28;20239;-75
2023/07/13 00:23:11;;;;;;;2.50;1.03;;;21.70;99.90;;;;;;4119733;28;20215;-75
2023/07/13 00:25:13;;;;;;;3.77;1.17;;;21.70;99.90;;;;;;4118496;28;20222;-74
2023/07/13 00:27:14;;;;;;;2.43;1.10;;;21.70;99.90;;;;;;4115967;28;20215;-75
2023/07/13 00:29:17;;;;;;;1.77;1.20;;;21.70;99.90;;;;;;4116378;28;20265;-75
2023/07/13 00:31:19;;;;;;;2.47;1.20;;;21.70;99.90;;;;;;4113718;28;20239;-75
2023/07/13 00:33:22;;;;;;;1.90;1.10;;;21.60;99.90;;;;;;4115014;28;20227;-75
2023/07/13 00:35:24;;;;;;;1.83;1.20;;;21.60;99.90;;;;;;4118199;28;20714;-75
2023/07/13 00:37:26;;;;;;;1.83;1.17;;;21.50;99.90;;;;;;4116475;28;20298;-76
2023/07/13 00:39:28;;;;;;;2.27;1.37;;;21.50;99.90;;;;;;4117997;28;20240;-76
2023/07/13 00:41:31;;;;;;;2.20;1.13;;;21.40;99.90;;;;;;4119832;28;20228;-76
2023/07/13 00:43:33;;;;;;;1.90;1.20;;;21.40;99.90;;;;;;4121160;28;20440;-76
2023/07/13 00:46:12;;;;;;;3.10;1.30;;;21.30;99.90;;;;;;4112651;28;20273;-76
2023/07/13 00:48:20;;;;;;;2.37;1.20;;;21.30;99.90;;;;;;4118182;28;20293;-76
2023/07/13 00:50:23;;;;;;;2.67;1.20;;;21.30;99.90;;;;;;4113424;28;20299;-76
2023/07/13 00:52:25;;;;;;;3.07;1.30;;;21.30;99.90;;;;;;4118760;28;20243;-76
2023/07/13 00:54:31;;;;;;;5.87;1.20;;;21.30;99.90;;;;;;4116537;28;20308;-76
2023/07/13 00:56:35;;;;;;;2.13;1.27;;;21.20;99.90;;;;;;4116601;28;20302;-76
2023/07/13 00:58:36;;;;;;;3.30;1.30;;;21.20;99.90;;;;;;4118862;28;20811;-76
2023/07/13 01:00:41;;;;;;;2.77;0.90;;;21.10;99.90;;;;;;4114962;28;20212;-76
2023/07/13 01:02:46;;;;;;;3.17;1.10;;;21.10;99.90;;;;;;4118636;28;20743;-76
2023/07/13 01:04:49;;;;;;;2.97;1.23;;;21.10;99.90;;;;;;4114017;28;20322;-76
2023/07/13 01:06:51;;;;;;;2.23;1.07;;;21.00;99.90;;;;;;4118067;28;20580;-76
2023/07/13 01:08:52;;;;;;;3.83;1.10;;;21.00;99.90;;;;;;4120104;28;20244;-76
2023/07/13 01:10:56;;;;;;;4.07;1.47;;;21.00;99.90;;;;;;4115818;28;20248;-76
2023/07/13 01:12:59;;;;;;;2.77;1.20;;;21.00;99.90;;;;;;4117158;28;20209;-76
2023/07/13 01:15:05;;;;;;;2.10;1.17;;;20.90;99.90;;;;;;4113227;28;20312;-75
2023/07/13 01:17:10;;;;;;;3.90;1.20;;;20.90;99.90;;;;;;4113966;28;20218;-76
2023/07/13 01:19:29;;;;;;;3.30;1.20;;;20.90;99.90;;;;;;4119411;28;20304;-76
2023/07/13 01:21:34;;;;;;;3.00;1.00;;;20.90;99.90;;;;;;4117439;28;20232;-76
2023/07/13 01:23:36;;;;;;;3.37;0.90;;;20.90;99.90;;;;;;4118292;28;20293;-76
2023/07/13 01:25:38;;;;;;;1.90;1.00;;;20.90;99.90;;;;;;4125422;28;20261;-76
2023/07/13 01:27:41;;;;;;;3.03;1.00;;;20.90;99.90;;;;;;4128568;28;20277;-76
2023/07/13 01:29:47;;;;;;;3.03;1.00;;;20.90;99.90;;;;;;4123735;28;20291;-76
2023/07/13 01:31:49;;;;;;;2.17;1.00;;;20.90;99.90;;;;;;4145936;23;20262;-71
2023/07/13 01:33:51;;;;;;;4.57;1.20;;;20.90;99.90;;;;;;4138415;28;20660;-71
2023/07/13 01:35:53;;;;;;;2.83;1.20;;;20.90;99.90;;;;;;4142808;28;21221;-71
2023/07/13 01:37:56;;;;;;;1.70;1.00;;;20.80;99.90;;;;;;4146808;28;20594;-71
2023/07/13 01:39:58;;;;;;;3.57;1.00;;;20.80;99.90;;;;;;4142631;28;20306;-71
2023/07/13 01:41:59;;;;;;;3.43;1.10;;;20.70;99.90;;;;;;4123936;28;20279;-70
2023/07/13 01:44:01;;;;;;;2.57;1.30;;;20.70;99.90;;;;;;4122233;28;20227;-71
2023/07/13 01:46:03;;;;;;;4.10;1.30;;;20.70;99.90;;;;;;4117869;28;20308;-71
2023/07/13 01:48:06;;;;;;;3.00;1.10;;;20.70;99.90;;;;;;4121847;28;20211;-71
2023/07/13 01:50:09;;;;;;;3.97;1.20;;;20.60;99.90;;;;;;4120572;28;20235;-71
2023/07/13 01:52:11;;;;;;;3.07;1.40;;;20.60;99.90;;;;;;4119295;28;20819;-71
2023/07/13 01:54:14;;;;;;;3.50;1.20;;;20.50;99.90;;;;;;4120239;28;20656;-71
2023/07/13 01:56:16;;;;;;;2.17;1.27;;;20.50;99.90;;;;;;4121507;28;20205;-71
2023/07/13 01:58:17;;;;;;;2.07;1.10;;;20.40;99.90;;;;;;4122387;28;20241;-71
2023/07/13 02:00:20;;;;;;;2.40;1.10;;;20.40;99.90;;;;;;4121091;28;20212;-71
2023/07/13 02:02:21;;;;;;;4.70;1.43;;;20.40;99.90;;;;;;4122053;28;20722;-71
2023/07/13 02:04:23;;;;;;;2.80;0.93;;;20.40;99.90;;;;;;4121188;28;20209;-71
2023/07/13 02:06:25;;;;;;;3.17;1.30;;;20.40;99.90;;;;;;4120166;28;20575;-71
2023/07/13 02:08:27;;;;;;;3.50;1.30;;;20.30;99.90;;;;;;4123016;28;20764;-71
2023/07/13 02:10:30;;;;;;;1.97;1.20;;;20.30;99.90;;;;;;4124735;28;20232;-71
2023/07/13 02:12:32;;;;;;;4.80;1.30;;;20.30;99.90;;;;;;4122622;28;20303;-71
2023/07/13 02:14:34;;;;;;;2.90;1.40;;;20.30;99.90;;;;;;4118823;28;20244;-70
2023/07/13 02:16:36;;;;;;;3.40;1.30;;;20.20;99.90;;;;;;4120516;28;20236;-70
2023/07/13 02:18:38;;;;;;;5.30;1.10;;;20.20;99.90;;;;;;4120873;28;20217;-71
2023/07/13 02:20:40;;;;;;;3.00;1.20;;;20.10;99.90;;;;;;4124956;28;22022;-71
2023/07/13 02:22:42;;;;;;;4.13;1.13;;;20.10;99.90;;;;;;4117033;28;20219;-70
2023/07/13 02:24:44;;;;;;;2.60;1.17;;;20.10;99.90;;;;;;4117902;28;20212;-70
2023/07/13 02:26:47;;;;;;;3.00;1.30;;;20.00;99.90;;;;;;4124048;28;20250;-70
2023/07/13 02:28:49;;;;;;;2.50;1.33;;;20.00;99.90;;;;;;4119576;28;20219;-71
2023/07/13 02:30:50;;;;;;;1.97;1.00;;;19.90;99.90;;;;;;4120207;28;20711;-71
2023/07/13 02:32:52;;;;;;;4.90;1.47;;;19.90;99.90;;;;;;4119763;28;20212;-71
2023/07/13 02:34:54;;;;;;;4.27;1.40;;;19.90;99.90;;;;;;4120349;28;20220;-71
2023/07/13 02:36:56;;;;;;;3.50;1.20;;;19.90;99.90;;;;;;4120633;28;20231;-71
2023/07/13 02:39:02;;;;;;;2.90;1.30;;;19.90;99.90;;;;;;4118073;28;20296;-71
2023/07/13 02:41:04;;;;;;;3.33;1.70;;;19.80;99.90;;;;;;4119758;28;20220;-71
2023/07/13 02:43:07;;;;;;;2.00;1.43;;;19.80;99.90;;;;;;4122592;28;20284;-71
2023/07/13 02:45:10;;;;;;;2.53;1.50;;;19.70;99.90;;;;;;4122411;28;20616;-71
2023/07/13 02:47:12;;;;;;;2.37;1.67;;;19.70;99.90;;;;;;4122643;28;20786;-71
2023/07/13 02:49:14;;;;;;;2.27;1.23;;;19.60;99.90;;;;;;4118228;28;20276;-71
2023/07/13 02:51:16;;;;;;;3.93;1.50;;;19.50;99.90;;;;;;4119702;28;20236;-71
2023/07/13 02:53:18;;;;;;;3.80;1.30;;;19.50;99.90;;;;;;4124200;28;20219;-71
2023/07/13 02:55:20;;;;;;;3.20;1.30;;;19.50;99.90;;;;;;4118405;28;20221;-71
2023/07/13 02:57:22;;;;;;;1.50;1.00;;;19.40;99.90;;;;;;4119944;28;20204;-71
2023/07/13 02:59:25;;;;;;;6.87;1.23;;;19.30;99.90;;;;;;4119917;28;20220;-71
2023/07/13 03:01:27;;;;;;;3.00;1.30;;;19.40;99.90;;;;;;4123570;28;20255;-71
2023/07/13 03:03:28;;;;;;;2.33;1.30;;;19.40;99.90;;;;;;4119256;28;20250;-71
2023/07/13 03:05:30;;;;;;;3.33;1.43;;;19.40;99.90;;;;;;4121663;28;20216;-71
2023/07/13 03:07:32;;;;;;;2.30;1.47;;;19.30;99.90;;;;;;4121117;28;20211;-71
2023/07/13 03:09:36;;;;;;;2.20;1.40;;;19.30;99.90;;;;;;4121101;28;20215;-71
2023/07/13 03:11:38;;;;;;;3.17;1.40;;;19.30;99.90;;;;;;4122767;28;20228;-71
2023/07/13 03:13:41;;;;;;;5.40;1.77;;;19.20;99.90;;;;;;4122949;28;20235;-71
2023/07/13 03:15:44;;;;;;;4.33;1.47;;;19.20;99.90;;;;;;4125133;28;20214;-71
2023/07/13 03:17:46;;;;;;;4.50;1.27;;;19.20;99.90;;;;;;4134062;28;20242;-71
2023/07/13 03:19:49;;;;;;;2.70;1.40;;;19.10;99.90;;;;;;4131020;28;20241;-71
2023/07/13 03:21:51;;;;;;;3.37;1.50;;;19.10;99.90;;;;;;4128779;28;20327;-71
2023/07/13 03:23:52;;;;;;;3.40;1.50;;;19.00;99.90;;;;;;4132288;28;20284;-71
2023/07/13 03:26:03;;;;;;;4.17;1.80;;;19.00;99.90;;;;;;4128057;28;20212;-71
2023/07/13 03:28:05;;;;;;;4.70;1.70;;;19.00;99.90;;;;;;4125487;28;20309;-71
2023/07/13 03:30:08;;;;;;;6.87;2.00;;;19.00;99.90;;;;;;4127825;28;20222;-72
2023/07/13 03:32:12;;;;;;;4.20;1.53;;;18.90;99.90;;;;;;4128572;28;20240;-71
2023/07/13 03:34:13;;;;;;;2.43;1.53;;;18.90;99.90;;;;;;4125598;28;20216;-71
2023/07/13 03:36:18;;;;;;;3.27;1.60;;;18.90;99.90;;;;;;4125964;28;20211;-71
2023/07/13 03:38:21;;;;;;;4.37;1.57;;;18.80;99.90;;;;;;4125060;28;20658;-71
2023/07/13 03:40:23;;;;;;;3.97;1.83;;;18.80;99.90;;;;;;4126056;28;20218;-71
2023/07/13 03:42:25;;;;;;;3.70;1.67;;;18.70;99.90;;;;;;4125527;28;20315;-71
2023/07/13 03:44:27;;;;;;;3.60;1.90;;;18.60;99.90;;;;;;4124284;28;20219;-71
2023/07/13 03:46:28;;;;;;;4.70;1.50;;;18.60;99.90;;;;;;4122481;28;20203;-71
2023/07/13 03:48:31;;;;;;;3.37;1.63;;;18.60;99.90;;;;;;4125205;28;20240;-71
2023/07/13 03:50:33;;;;;;;3.27;1.57;;;18.60;99.90;;;;;;4129111;28;20448;-71
2023/07/13 03:52:35;;;;;;;1.90;1.50;;;18.50;99.90;;;;;;4125202;28;20300;-71
2023/07/13 03:54:37;;;;;;;2.80;1.70;;;18.50;99.90;;;;;;4128641;28;20300;-70
2023/07/13 03:56:39;;;;;;;2.80;1.70;;;18.50;99.90;;;;;;4126619;28;20221;-71
2023/07/13 03:58:41;;;;;;;5.73;1.60;;;18.50;99.90;;;;;;4126808;28;21117;-71
2023/07/13 04:00:43;;;;;;;3.90;1.60;;;18.40;99.90;;;;;;4126645;28;20219;-71
2023/07/13 04:02:47;;;;;;;5.83;2.00;;;18.40;99.90;;;;;;4134229;28;20291;-71
2023/07/13 04:04:50;;;;;;;4.27;1.63;;;18.40;99.90;;;;;;4127451;28;20213;-71
2023/07/13 04:06:52;;;;;;;3.80;1.90;;;18.40;99.90;;;;;;4127527;28;20308;-71
2023/07/13 04:08:56;;;;;;;4.47;1.70;;;18.40;99.90;;;;;;4124837;28;20219;-71
2023/07/13 04:10:59;;;;;;;5.60;2.00;;;18.30;99.90;;;;;;4122635;28;20233;-71
2023/07/13 04:13:00;;;;;;;4.63;1.60;;;18.40;99.90;;;;;;4124858;28;20216;-71
2023/07/13 04:15:01;;;;;;;2.13;1.70;;;18.40;99.90;;;;;;4128656;28;20212;-71
2023/07/13 04:17:04;;;;;;;5.60;1.60;;;18.40;99.90;;;;;;4125933;28;20696;-71
2023/07/13 04:19:06;;;;;;;2.70;1.60;;;18.30;99.90;;;;;;4125104;28;20245;-71
2023/07/13 04:21:09;;;;;;;3.93;2.00;;;18.30;99.90;;;;;;4125530;28;20271;-71
2023/07/13 04:23:11;;;;;;;2.70;1.33;;;18.30;99.90;;;;;;4126442;28;20638;-71
2023/07/13 04:25:13;;;;;;;3.30;1.70;;;18.30;99.90;;;;;;4126677;28;20583;-71
2023/07/13 04:27:15;;;;;;;3.53;1.50;;;18.30;99.90;;;;;;4124703;28;20302;-71
2023/07/13 04:29:17;;;;;;;4.40;1.80;;;18.40;99.90;;;;;;4127120;28;20296;-71
2023/07/13 04:31:20;;;;;;;3.47;1.60;;;18.30;99.90;;;;;;4123010;28;20242;-71
2023/07/13 04:33:23;;;;;;;4.37;2.00;;;18.30;99.90;;;;;;4122880;28;20293;-71
2023/07/13 04:35:25;;;;;;;3.27;1.60;;;18.30;99.90;;;;;;4126154;28;20208;-71
2023/07/13 04:37:29;;;;;;;3.10;1.77;;;18.30;99.90;;;;;;4123413;28;20361;-71
2023/07/13 04:39:31;;;;;;;4.87;2.20;;;18.30;99.90;;;;;;4126376;28;20226;-72
2023/07/13 04:41:33;;;;;;;6.47;1.67;;;18.40;99.90;;;;;;4124623;28;20663;-72
2023/07/13 04:43:35;;;;;;;3.60;1.73;;;18.40;99.90;;;;;;4123328;28;20209;-72
2023/07/13 04:45:37;;;;;;;4.10;1.83;;;18.40;99.90;;;;;;4120667;28;20209;-70
2023/07/13 04:47:40;;;;;;;4.40;1.63;;;18.40;99.90;;;;;;4122594;28;20301;-70
2023/07/13 04:49:41;;;;;;;2.47;2.07;;;18.40;99.90;;;;;;4127583;28;20319;-70
2023/07/13 04:51:43;;;;;;;2.67;1.60;;;18.40;99.90;;;;;;4120540;28;20351;-70
2023/07/13 04:53:46;;;;;;;3.57;1.50;;;18.30;99.90;;;;;;4124586;28;20711;-70
2023/07/13 04:55:48;;;;;;;2.13;1.60;;;18.30;99.90;;;;;;4120803;28;20808;-70
2023/07/13 04:57:51;;;;;;;4.67;1.90;;;18.30;99.90;;;;;;4127670;28;20717;-70
2023/07/13 04:59:53;;;;;;;3.73;1.70;;;18.30;99.90;;;;;;4122819;28;20312;-70
2023/07/13 05:01:55;;;;;;;3.20;1.80;;;18.30;99.90;;;;;;4120040;28;20764;-70
2023/07/13 05:03:59;;;;;;;4.33;1.93;;;18.30;99.90;;;;;;4125915;28;20269;-71
2023/07/13 05:06:01;;;;;;;5.27;2.50;;;18.30;99.90;;;;;;4124448;28;20291;-69
2023/07/13 05:08:03;;;;;;;3.87;2.30;;;18.30;99.90;;;;;;4123332;28;20221;-70
2023/07/13 05:10:08;;;;;;;5.37;2.30;;;18.30;99.90;;;;;;4132217;28;20216;-70
2023/07/13 05:12:10;;;;;;;5.13;2.20;;;18.30;99.90;;;;;;4119669;28;20266;-70
2023/07/13 05:14:12;;;;;;;4.20;2.07;;;18.30;99.90;;;;;;4121424;28;20688;-70
2023/07/13 05:16:14;;;;;;;4.87;1.97;;;18.30;99.90;;;;;;4124702;28;20217;-70
2023/07/13 05:18:16;;;;;;;2.97;1.70;;;18.30;99.90;;;;;;4122845;28;20307;-71
2023/07/13 05:20:19;;;;;;;3.20;1.80;;;18.30;99.90;;;;;;4120427;28;20301;-70
2023/07/13 05:22:21;;;;;;;5.70;2.20;;;18.40;99.90;;;;;;4120790;28;20204;-71
2023/07/13 05:24:22;;;;;;;6.37;2.03;;;18.40;99.90;;;;;;4125180;28;20212;-69
2023/07/13 05:26:25;;;;;;;6.73;1.93;;;18.40;99.90;;;;;;4126011;28;20303;-70
2023/07/13 05:28:28;;;;;;;2.93;1.70;;;18.50;99.90;;;;;;4121097;28;20221;-70
2023/07/13 05:30:30;;;;;;;8.50;2.70;;;18.50;99.90;;;;;;4120590;28;20844;-72
2023/07/13 05:32:32;;;;;;;4.30;1.80;;;18.50;99.90;;;;;;4119057;28;20733;-70
2023/07/13 05:34:34;;;;;;;3.97;2.10;;;18.50;99.90;;;;;;4121637;28;20213;-70
2023/07/13 05:36:36;;;;;;;3.20;1.90;;;18.60;99.90;;;;;;4121046;28;20223;-70
2023/07/13 05:38:37;;;;;;;4.50;1.80;;;18.50;99.90;;;;;;4119563;28;20314;-69
2023/07/13 05:40:39;;;;;;;4.90;2.10;;;18.60;99.90;;;;;;4119739;28;20242;-71
2023/07/13 05:42:43;;;;;;;5.60;2.00;;;18.60;99.90;;;;;;4121460;28;20247;-71
2023/07/13 05:44:43;;;;;;;2.37;1.73;;;18.70;99.90;;;;;;4120813;28;20208;-71
2023/07/13 05:46:45;;;;;;;3.93;1.90;;;18.70;99.90;;;;;;4125148;28;20266;-71
2023/07/13 05:48:47;;;;;;;4.90;1.80;;;18.80;99.90;;;;;;4123756;28;20308;-71
2023/07/13 05:50:49;;;;;;;4.37;1.80;;;18.80;99.90;;;;;;4119040;28;20324;-71
2023/07/13 05:52:52;;;;;;;7.83;1.97;;;18.80;99.90;;;;;;4121333;28;20684;-71
2023/07/13 05:54:54;;;;;;;5.00;1.93;;;18.90;99.90;;;;;;4124281;28;20243;-71
2023/07/13 05:56:55;;;;;;;3.53;1.50;;;18.90;99.90;;;;;;4118638;28;20212;-70
2023/07/13 05:58:59;;;;;;;8.47;1.90;;;19.00;99.90;;;;;;4120437;28;20221;-71
2023/07/13 06:01:03;;;;;;;3.43;1.97;;;19.00;99.90;;;;;;4121391;28;20263;-71
2023/07/13 06:03:06;;;;;;;7.60;2.17;;;19.10;99.90;;;;;;4122661;28;20215;-69
2023/07/13 06:05:09;;;;;;;5.60;1.93;;;19.20;99.90;;;;;;4124457;28;20251;-70
2023/07/13 06:07:11;;;;;;;3.50;1.70;;;19.30;99.90;;;;;;4121711;28;20308;-71
2023/07/13 06:09:12;;;;;;;4.03;1.80;;;19.30;99.90;;;;;;4116735;28;20311;-71
2023/07/13 06:11:16;;;;;;;3.57;1.93;;;19.30;99.90;;;;;;4118258;28;20269;-71
2023/07/13 06:13:19;;;;;;;3.60;1.97;;;19.30;99.90;;;;;;4121575;28;20209;-71
2023/07/13 06:15:22;;;;;;;3.97;1.97;;;19.40;99.90;;;;;;4120744;28;20196;-71
2023/07/13 06:17:24;;;;;;;4.10;1.53;;;19.40;99.90;;;;;;4117736;28;20215;-70
2023/07/13 06:19:25;;;;;;;2.97;1.70;;;19.40;99.90;;;;;;4123146;28;20559;-71
2023/07/13 06:21:27;;;;;;;5.23;2.00;;;19.50;99.90;;;;;;4119866;28;20315;-70
2023/07/13 06:23:28;;;;;;;4.20;1.73;;;19.50;99.90;;;;;;4121959;28;20591;-71
2023/07/13 06:25:30;;;;;;;3.03;1.47;;;19.50;99.90;;;;;;4121349;28;20250;-70
2023/07/13 06:27:32;;;;;;;2.67;1.30;;;19.60;99.90;;;;;;4121125;28;20299;-70
2023/07/13 06:29:34;;;;;;;2.23;1.30;;;19.60;99.90;;;;;;4122644;28;20307;-70
2023/07/13 06:31:37;;;;;;;1.97;1.30;;;19.60;99.90;;;;;;4120947;28;20242;-71
2023/07/13 06:33:39;;;;;;;4.90;1.87;;;19.70;99.90;;;;;;4124454;28;20658;-71
2023/07/13 06:35:41;;;;;;;4.73;1.90;;;19.70;99.90;;;;;;4119878;28;20296;-71
2023/07/13 06:37:43;;;;;;;4.90;1.83;;;19.80;99.90;;;;;;4119203;28;20215;-71
2023/07/13 06:39:45;;;;;;;3.70;1.43;;;19.80;99.90;;;;;;4121948;28;20304;-71
2023/07/13 06:41:47;;;;;;;5.10;1.70;;;19.90;99.90;;;;;;4124619;28;20259;-71
2023/07/13 06:43:49;;;;;;;8.00;1.70;;;19.90;99.90;;;;;;4122488;28;20306;-71
2023/07/13 06:45:51;;;;;;;7.23;1.70;;;20.00;99.90;;;;;;4122595;28;20219;-71
2023/07/13 06:47:54;;;;;;;4.90;1.70;;;20.00;99.90;;;;;;4120367;28;20244;-71
2023/07/13 06:49:56;;;;;;;3.40;1.50;;;20.10;99.90;;;;;;4120029;28;20248;-71
2023/07/13 06:51:58;;;;;;;2.80;1.30;;;20.20;99.90;;;;;;4119745;28;20318;-71
2023/07/13 06:54:00;;;;;;;2.73;1.60;;;20.20;99.90;;;;;;4120035;28;20294;-71
2023/07/13 06:56:02;;;;;;;4.17;1.50;;;20.30;99.90;;;;;;4120520;28;20299;-71
2023/07/13 06:58:04;;;;;;;3.53;1.40;;;20.40;99.90;;;;;;4118244;28;20312;-71
2023/07/13 07:00:09;;;;;;;2.80;1.33;;;20.50;99.90;;;;;;4123824;28;20312;-71
2023/07/13 07:02:12;;;;;;;4.30;1.50;;;20.60;99.90;;;;;;4121824;28;20624;-71
2023/07/13 07:04:15;;;;;;;5.13;1.27;;;20.80;99.90;;;;;;4121833;28;20224;-71
2023/07/13 07:06:18;;;;;;;3.23;1.70;;;20.80;99.90;;;;;;4120676;28;20217;-71
2023/07/13 07:08:20;;;;;;;3.63;1.63;;;20.90;99.90;;;;;;4120293;28;20216;-72
2023/07/13 07:10:23;;;;;;;3.70;1.50;;;20.90;99.90;;;;;;4122227;28;20307;-71
2023/07/13 07:12:24;;;;;;;3.47;1.50;;;20.90;99.90;;;;;;4122124;28;20284;-72
2023/07/13 07:14:26;;;;;;;8.57;1.87;;;21.00;99.90;;;;;;4121250;28;20297;-72
2023/07/13 07:16:28;;;;;;;2.10;1.47;;;21.00;99.90;;;;;;4122920;28;20216;-72
2023/07/13 07:18:30;;;;;;;4.20;1.50;;;21.00;99.90;;;;;;4122823;28;20216;-72
2023/07/13 07:20:33;;;;;;;3.33;1.40;;;21.10;99.90;;;;;;4122364;28;20216;-72
2023/07/13 07:22:35;;;;;;;2.80;1.43;;;21.10;99.90;;;;;;4121742;28;20593;-72
2023/07/13 07:24:37;;;;;;;5.63;2.17;;;21.10;99.90;;;;;;4120243;28;20209;-71
2023/07/13 07:26:39;;;;;;;6.47;2.60;;;21.10;99.90;;;;;;4117689;28;20667;-72
2023/07/13 07:28:41;;;;;;;5.53;1.90;;;21.10;99.90;;;;;;4122348;28;20243;-71
2023/07/13 07:30:43;;;;;;;3.57;1.43;;;21.20;99.90;;;;;;4120554;28;20233;-71
2023/07/13 07:32:45;;;;;;;5.27;1.73;;;21.30;99.90;;;;;;4123319;28;20228;-72
2023/07/13 07:34:47;;;;;;;6.13;1.53;;;21.30;99.90;;;;;;4117672;28;20683;-72
2023/07/13 07:36:50;;;;;;;5.20;1.30;;;21.30;99.90;;;;;;4121540;28;20236;-71
2023/07/13 07:38:52;;;;;;;7.27;1.53;;;21.40;99.90;;;;;;4121155;28;20652;-72
2023/07/13 07:40:54;;;;;;;4.90;1.50;;;21.50;99.90;;;;;;4122330;28;20232;-71
2023/07/13 07:42:56;;;;;;;2.53;1.10;;;21.60;99.90;;;;;;4121446;28;20274;-72
2023/07/13 07:44:58;;;;;;;4.10;1.30;;;21.70;99.90;;;;;;4125071;28;20293;-71
2023/07/13 07:47:00;;;;;;;3.37;1.43;;;21.80;99.90;;;;;;4121248;28;20305;-71
2023/07/13 07:49:02;;;;;;;4.13;1.60;;;21.80;99.90;;;;;;4122017;28;20284;-71
2023/07/13 07:51:04;;;;;;;3.03;1.30;;;21.80;99.90;;;;;;4121093;28;20227;-71
2023/07/13 07:53:12;;;;;;;3.23;1.23;;;21.90;99.90;;;;;;4119253;28;20261;-72
2023/07/13 07:55:14;;;;;;;2.10;0.90;;;21.80;99.90;;;;;;4123917;28;20558;-72
2023/07/13 07:57:16;;;;;;;2.73;1.20;;;21.80;99.90;;;;;;4118353;28;20761;-71
2023/07/13 07:59:18;;;;;;;2.47;1.10;;;21.90;99.90;;;;;;4121940;28;20275;-72
2023/07/13 08:01:20;;;;;;;3.87;1.03;;;22.00;99.90;;;;;;4125159;28;20714;-71
2023/07/13 08:03:22;;;;;;;2.50;1.20;;;22.00;99.90;;;;;;4121805;28;20491;-71
2023/07/13 08:05:23;;;;;;;1.97;0.90;;;22.00;99.90;;;;;;4124157;28;20257;-71
2023/07/13 08:07:25;;;;;;;3.97;1.80;;;22.10;99.90;;;;;;4124020;28;20247;-71
2023/07/13 08:09:29;;;;;;;3.97;1.37;;;22.20;99.90;;;;;;4126439;28;20213;-71
2023/07/13 08:11:30;;;;;;;3.33;1.13;;;22.20;98.90;;;;;;4128596;28;20707;-71
2023/07/13 08:13:32;;;;;;;3.40;1.30;;;22.30;98.50;;;;;;4120758;28;20720;-71
2023/07/13 08:15:34;;;;;;;3.20;1.10;;;22.30;97.70;;;;;;4130450;28;20651;-74
2023/07/13 08:17:36;;;;;;;3.67;1.13;;;22.30;98.30;;;;;;4121656;28;20302;-73
2023/07/13 08:19:38;;;;;;;3.33;1.30;;;22.30;97.80;;;;;;4123583;28;20649;-72
2023/07/13 08:21:40;;;;;;;2.17;1.00;;;22.40;98.90;;;;;;4124616;28;20246;-72
2023/07/13 08:23:42;;;;;;;3.30;1.27;;;22.40;98.60;;;;;;4124828;28;20241;-72
2023/07/13 08:25:51;;;;;;;6.50;1.30;;;22.40;95.20;;;;;;4121522;28;20218;-72
2023/07/13 08:27:53;;;;;;;3.03;1.20;;;22.50;94.30;;;;;;4124163;28;20274;-72
2023/07/13 08:29:55;;;;;;;3.00;0.90;;;22.50;92.60;;;;;;4125482;28;20313;-72
2023/07/13 08:31:58;;;;;;;2.40;0.90;;;22.50;92.00;;;;;;4122269;28;20243;-72
2023/07/13 08:34:00;;;;;;;5.47;1.03;;;22.50;91.10;;;;;;4121359;28;20597;-72
2023/07/13 08:36:02;;;;;;;7.97;1.20;;;22.50;87.90;;;;;;4128169;28;20339;-72
2023/07/13 08:38:04;;;;;;;5.03;1.33;;;22.60;89.70;;;;;;4121039;28;20219;-72
2023/07/13 08:40:09;;;;;;;5.50;1.37;;;22.60;90.20;;;;;;4128885;28;20215;-72
2023/07/13 08:42:20;;;;;;;7.17;1.40;;;22.70;89.50;;;;;;4125456;28;20333;-72
2023/07/13 08:44:31;;;;;;;3.27;1.20;;;22.70;86.20;;;;;;4121824;28;20302;-73
2023/07/13 08:46:37;;;;;;;3.53;1.10;;;22.70;85.00;;;;;;4126235;28;20294;-73
2023/07/13 08:48:43;;;;;;;2.27;0.97;;;22.80;80.00;;;;;;4121306;28;20298;-73
2023/07/13 08:50:52;;;;;;;2.07;1.20;;;22.80;79.90;;;;;;4126791;28;20241;-74
2023/07/13 08:52:57;;;;;;;2.10;1.03;;;22.90;77.40;;;;;;4127226;28;20258;-71
2023/07/13 08:55:03;;;;;;;2.13;1.00;;;22.90;74.60;;;;;;4127717;28;20220;-72
2023/07/13 08:57:14;;;;;;;6.47;1.57;;;23.00;74.20;;;;;;4121471;28;20226;-72
2023/07/13 08:59:18;;;;;;;2.33;0.90;;;23.00;72.60;;;;;;4122432;28;20318;-72
2023/07/13 09:01:24;;;;;;;3.93;1.20;;;23.20;71.60;;;;;;4127874;28;20263;-72
2023/07/13 09:03:31;;;;;;;2.60;1.00;;;23.40;68.60;;;;;;4123650;28;20662;-72
2023/07/13 09:05:39;;;;;;;8.97;1.80;;;23.60;68.30;;;;;;4122787;28;20197;-72
2023/07/13 09:07:55;;;;;;;3.17;1.17;;;23.70;64.00;;;;;;4126445;28;20258;-73
2023/07/13 09:10:06;;;;;;;4.00;1.10;;;23.90;62.30;;;;;;4123321;28;20212;-72
2023/07/13 09:12:18;;;;;;;2.07;1.17;;;24.10;59.40;;;;;;4125636;28;20229;-72
2023/07/13 09:14:36;;;;;;;3.60;1.20;;;24.20;59.00;;;;;;4122182;28;20296;-72
2023/07/13 09:16:39;;;;;;;4.50;1.57;;;24.30;58.50;;;;;;4121785;28;20233;-72
2023/07/13 09:18:45;;;;;;;3.87;1.30;;;24.40;58.60;;;;;;4121315;28;20392;-72
2023/07/13 09:20:52;;;;;;;5.70;1.40;;;24.50;58.90;;;;;;4125272;28;20323;-72
2023/07/13 09:22:54;;;;;;;6.20;1.37;;;24.30;59.60;;;;;;4124065;28;20207;-72
2023/07/13 09:25:02;;;;;;;3.63;1.03;;;24.30;59.70;;;;;;4121148;28;20299;-72
2023/07/13 09:27:17;;;;;;;7.17;1.40;;;24.30;60.10;;;;;;4124789;28;20871;-72
2023/07/13 09:29:27;;;;;;;3.33;1.03;;;24.40;58.40;;;;;;4124672;28;20215;-72
2023/07/13 09:31:34;;;;;;;6.53;1.17;;;24.50;55.90;;;;;;4123886;28;20665;-72
2023/07/13 09:33:36;;;;;;;2.50;1.10;;;24.60;56.00;;;;;;4124403;28;20310;-72
2023/07/13 09:35:38;;;;;;;4.30;1.37;;;24.60;54.80;;;;;;4124394;28;20236;-72
2023/07/13 09:37:41;;;;;;;3.40;1.07;;;24.70;55.00;;;;;;4118645;28;20231;-72
2023/07/13 09:39:44;;;;;;;6.67;1.20;;;24.80;54.30;;;;;;4124748;28;20304;-72
2023/07/13 09:41:50;;;;;;;5.80;1.43;;;24.90;52.70;;;;;;4123382;28;20233;-72
2023/07/13 09:44:12;;;;;;;4.07;1.33;;;25.00;51.40;;;;;;4119297;28;20303;-72
2023/07/13 09:46:22;;;;;;;3.17;1.27;;;25.10;51.40;;;;;;4120510;28;20204;-72
2023/07/13 09:48:25;;;;;;;4.57;1.30;;;25.20;51.70;;;;;;4120691;28;20677;-72
2023/07/13 09:50:29;;;;;;;4.50;1.10;;;25.30;51.40;;;;;;4123402;28;20213;-72
2023/07/13 09:52:43;;;;;;;2.57;0.90;;;25.40;49.50;;;;;;4120159;28;20291;-72
2023/07/13 09:54:48;;;;;;;3.93;1.00;;;25.50;47.80;;;;;;4121648;28;20208;-73
2023/07/13 09:56:56;;;;;;;4.97;1.10;;;25.50;46.80;;;;;;4122194;28;20213;-71
2023/07/13 09:58:58;;;;;;;4.00;0.90;;;25.60;47.40;;;;;;4123028;28;20212;-71
2023/07/13 10:01:02;;;;;;;2.47;1.17;;;25.70;47.70;;;;;;4121648;28;20242;-70
2023/07/13 10:03:15;;;;;;;3.20;1.23;;;25.70;47.70;;;;;;4120691;28;20208;-70
2023/07/13 10:05:19;;;;;;;6.37;1.40;;;25.80;47.80;;;;;;4121825;28;20255;-70
2023/07/13 10:07:23;;;;;;;3.17;1.20;;;25.80;47.70;;;;;;4122142;28;20215;-70
2023/07/13 10:09:25;;;;;;;6.80;1.20;;;25.80;46.90;;;;;;4118393;28;20239;-70
2023/07/13 10:11:30;;;;;;;5.83;1.23;;;25.90;46.70;;;;;;4121457;28;20324;-70
2023/07/13 10:13:36;;;;;;;3.67;1.00;;;26.00;46.40;;;;;;4120081;28;20248;-70
2023/07/13 10:15:38;;;;;;;3.17;1.07;;;26.20;46.20;;;;;;4121232;28;20619;-70
2023/07/13 10:17:40;;;;;;;4.67;1.10;;;26.30;46.60;;;;;;4120182;28;20295;-72
2023/07/13 10:19:45;;;;;;;2.97;1.10;;;26.30;46.30;;;;;;4123097;28;20210;-70
2023/07/13 10:21:54;;;;;;;2.87;1.23;;;26.40;46.30;;;;;;4119775;28;20232;-70
2023/07/13 10:24:03;;;;;;;4.37;1.63;;;26.30;45.70;;;;;;4119562;28;20578;-70
2023/07/13 10:26:09;;;;;;;6.80;1.50;;;26.40;45.30;;;;;;4120720;28;20211;-69
2023/07/13 10:28:22;;;;;;;2.37;1.03;;;26.40;46.00;;;;;;4120824;28;20237;-70
2023/07/13 10:30:28;;;;;;;2.13;1.10;;;26.40;45.90;;;;;;4121963;28;20200;-69
2023/07/13 10:32:30;;;;;;;6.10;1.40;;;26.30;45.70;;;;;;4122593;28;20212;-70
2023/07/13 10:34:33;;;;;;;5.43;1.37;;;26.30;45.10;;;;;;4122906;28;20628;-69
2023/07/13 10:36:43;;;;;;;6.17;1.20;;;26.30;45.00;;;;;;4122439;28;20312;-69
2023/07/13 10:38:47;;;;;;;3.80;1.20;;;26.20;45.20;;;;;;4121997;28;20243;-69
2023/07/13 10:40:57;;;;;;;4.80;1.30;;;26.00;45.80;;;;;;4121607;28;20619;-69
2023/07/13 10:43:03;;;;;;;3.60;1.13;;;25.90;46.20;;;;;;4122801;28;20559;-69